createdAt,value
2018-04-25T00:02:07.254Z,100357.91
2018-04-25T00:04:34.746Z,100350.06
2018-04-25T00:07:02.308Z,100342.95
2018-04-25T00:09:29.811Z,100331.95
2018-04-25T00:11:57.296Z,100329.23
2018-04-25T00:14:24.749Z,100327.84
2018-04-25T00:16:52.203Z,100327.09
2018-04-25T00:19:19.676Z,100336.85
2018-04-25T00:21:47.165Z,100325.41
2018-04-25T00:24:14.626Z,100331.52
2018-04-25T00:26:42.092Z,100329.34
2018-04-25T00:29:09.730Z,100324.05
2018-04-25T00:31:37.290Z,100311.13
2018-04-25T00:34:04.776Z,100315.83
2018-04-25T00:36:32.272Z,100306.72
2018-04-25T00:38:59.854Z,100299.98
2018-04-25T00:41:27.412Z,100298.18
2018-04-25T00:43:54.869Z,100296.86
2018-04-25T00:46:22.328Z,100291.20
2018-04-25T00:48:49.891Z,100293.72
2018-04-25T00:51:17.345Z,100288.03
2018-04-25T00:53:44.826Z,100273.89
2018-04-25T00:56:12.343Z,100270.77
2018-04-25T00:58:39.799Z,100267.09
2018-04-25T01:01:07.341Z,100272.64
2018-04-25T01:03:34.811Z,100276.06
2018-04-25T01:06:02.312Z,100261.69
2018-04-25T01:08:29.827Z,100256.22
2018-04-25T01:10:57.323Z,100259.94
2018-04-25T01:13:24.837Z,100253.82
2018-04-25T01:15:52.300Z,100253.03
2018-04-25T01:18:19.783Z,100243.77
2018-04-25T01:20:47.411Z,100238.13
2018-04-25T01:23:24.679Z,100232.23
2018-04-25T01:25:58.305Z,100225.51
2018-04-25T01:28:25.855Z,100230.11
2018-04-25T01:30:59.738Z,100221.00
2018-04-25T01:33:28.025Z,100220.08
2018-04-25T01:35:58.268Z,100210.56
2018-04-25T01:38:27.747Z,100203.36
2018-04-25T01:40:55.388Z,100205.23
2018-04-25T01:43:23.025Z,100209.14
2018-04-25T01:49:31.575Z,100189.00
2018-04-25T01:52:10.889Z,100184.36
2018-04-25T01:54:50.121Z,100171.42
2018-04-25T01:57:29.280Z,100163.81
2018-04-25T02:00:08.445Z,100164.35
2018-04-25T02:02:35.448Z,100145.87
2018-04-25T02:05:02.921Z,100139.19
2018-04-25T02:07:30.395Z,100139.30
2018-04-25T02:09:57.928Z,100136.82
2018-04-25T02:12:25.485Z,100137.75
2018-04-25T02:14:52.971Z,100139.24
2018-04-25T02:17:20.452Z,100134.86
2018-04-25T02:19:47.950Z,100133.40
2018-04-25T02:22:15.444Z,100125.55
2018-04-25T02:24:42.898Z,100116.47
2018-04-25T02:27:10.388Z,100116.49
2018-04-25T02:29:37.956Z,100113.67
2018-04-25T02:32:05.531Z,100100.66
2018-04-25T02:34:32.991Z,100093.86
2018-04-25T02:37:00.487Z,100084.07
2018-04-25T02:39:27.980Z,100074.96
2018-04-25T02:41:55.460Z,100073.36
2018-04-25T02:44:22.985Z,100072.41
2018-04-25T02:46:50.470Z,100067.37
2018-04-25T02:49:17.957Z,100067.95
2018-04-25T02:51:45.524Z,100065.94
2018-04-25T02:54:13.035Z,100050.44
2018-04-25T02:56:40.489Z,100042.28
2018-04-25T02:59:07.974Z,100033.59
2018-04-25T03:01:35.461Z,100030.73
2018-04-25T03:04:02.922Z,100016.47
2018-04-25T03:06:30.404Z,100022.94
2018-04-25T03:08:57.929Z,100019.55
2018-04-25T03:11:25.482Z,100020.34
2018-04-25T03:13:52.943Z,100009.56
2018-04-25T03:16:20.463Z,100016.11
2018-04-25T03:18:47.955Z,100007.55
2018-04-25T03:21:15.438Z,100000.91
2018-04-25T03:23:43.077Z,99997.65
2018-04-25T03:26:10.564Z,99988.36
2018-04-25T03:28:38.017Z,99986.62
2018-04-25T03:31:05.499Z,99994.66
2018-04-25T03:33:32.960Z,99979.84
2018-04-25T03:36:00.462Z,99980.00
2018-04-25T03:38:27.943Z,99976.88
2018-04-25T03:40:55.461Z,99974.84
2018-04-25T03:43:22.961Z,99977.85
2018-04-25T03:45:50.411Z,99974.81
2018-04-25T03:48:17.922Z,99973.75
2018-04-25T03:50:45.421Z,99968.48
2018-04-25T03:53:12.903Z,99970.63
2018-04-25T03:55:40.400Z,99972.38
2018-04-25T03:58:07.896Z,99965.05
2018-04-25T04:00:35.399Z,99966.02
2018-04-25T04:03:02.897Z,99963.59
2018-04-25T04:05:30.360Z,99956.14
2018-04-25T04:07:57.845Z,99961.25
2018-04-25T04:10:25.334Z,99959.80
2018-04-25T04:12:52.810Z,99953.39
2018-04-25T04:15:20.378Z,99963.72
2018-04-25T04:17:47.911Z,99956.27
2018-04-25T04:20:15.385Z,99955.86
2018-04-25T04:22:42.843Z,99947.80
2018-04-25T04:25:10.342Z,99945.88
2018-04-25T04:27:37.872Z,99938.84
2018-04-25T04:30:05.431Z,99936.11
2018-04-25T04:32:32.894Z,99928.12
2018-04-25T04:35:00.406Z,99930.04
2018-04-25T04:37:27.884Z,99935.35
2018-04-25T04:39:55.373Z,99919.89
2018-04-25T04:42:22.888Z,99913.53
2018-04-25T04:44:50.347Z,99918.33
2018-04-25T04:47:17.928Z,99922.98
2018-04-25T04:49:45.383Z,99917.15
2018-04-25T04:52:12.964Z,99923.16
2018-04-25T04:54:40.469Z,99920.30
2018-04-25T04:57:07.919Z,99925.36
2018-04-25T04:59:35.427Z,99927.44
2018-04-25T05:02:02.889Z,99922.82
2018-04-25T05:04:30.390Z,99915.78
2018-04-25T05:06:57.850Z,99916.60
2018-04-25T05:09:25.394Z,99913.62
2018-04-25T05:11:52.877Z,99907.39
2018-04-25T05:14:20.357Z,99911.34
2018-04-25T05:16:47.929Z,99904.97
2018-04-25T05:19:15.408Z,99906.22
2018-04-25T05:21:42.924Z,99908.95
2018-04-25T05:24:10.528Z,99910.32
2018-04-25T05:26:38.016Z,99905.44
2018-04-25T05:29:05.596Z,99901.89
2018-04-25T05:31:33.079Z,99898.66
2018-04-25T05:34:00.551Z,99903.14
2018-04-25T05:36:28.076Z,99897.80
2018-04-25T05:38:55.531Z,99900.13
2018-04-25T05:41:23.011Z,99901.37
2018-04-25T05:43:50.520Z,99903.16
2018-04-25T05:46:18.008Z,99895.55
2018-04-25T05:48:45.596Z,99899.88
2018-04-25T05:51:13.088Z,99895.23
2018-04-25T05:53:40.584Z,99888.97
2018-04-25T05:56:08.083Z,99884.64
2018-04-25T05:58:35.530Z,99883.80
2018-04-25T06:01:03.125Z,99890.90
2018-04-25T06:03:30.608Z,99879.22
2018-04-25T06:05:58.051Z,99880.59
2018-04-25T06:08:25.540Z,99875.41
2018-04-25T06:10:53.074Z,99866.33
2018-04-25T06:13:20.579Z,99859.78
2018-04-25T06:15:48.036Z,99856.55
2018-04-25T06:18:15.591Z,99858.75
2018-04-25T06:20:43.076Z,99846.36
2018-04-25T06:23:10.667Z,99851.67
2018-04-25T06:25:38.154Z,99856.85
2018-04-25T06:28:05.698Z,99854.13
2018-04-25T06:30:33.222Z,99855.90
2018-04-25T06:33:00.793Z,99851.00
2018-04-25T06:35:28.258Z,99852.91
2018-04-25T06:37:55.833Z,99847.61
2018-04-25T06:40:23.282Z,99850.59
2018-04-25T06:42:50.735Z,99843.67
2018-04-25T06:45:18.208Z,99838.23
2018-04-25T06:47:45.709Z,99833.98
2018-04-25T06:50:13.195Z,99846.27
2018-04-25T06:52:40.676Z,99842.28
2018-04-25T06:55:08.236Z,99844.73
2018-04-25T06:57:35.699Z,99836.72
2018-04-25T07:00:03.176Z,99827.85
2018-04-25T07:02:30.640Z,99832.10
2018-04-25T07:04:58.120Z,99835.09
2018-04-25T07:07:25.591Z,99836.31
2018-04-25T07:09:53.083Z,99827.59
2018-04-25T07:12:20.558Z,99826.77
2018-04-25T07:14:48.056Z,99836.19
2018-04-25T07:17:15.654Z,99834.67
2018-04-25T07:19:43.116Z,99837.67
2018-04-25T07:22:10.576Z,99837.66
2018-04-25T07:24:38.263Z,99829.88
2018-04-25T07:27:05.717Z,99829.20
2018-04-25T07:29:33.211Z,99834.50
2018-04-25T07:32:00.710Z,99829.99
2018-04-25T07:34:28.200Z,99832.57
2018-04-25T07:36:55.689Z,99832.70
2018-04-25T07:39:23.163Z,99833.66
2018-04-25T07:41:50.723Z,99831.06
2018-04-25T07:44:18.150Z,99830.22
2018-04-25T07:46:45.658Z,99827.77
2018-04-25T07:49:13.160Z,99826.37
2018-04-25T07:51:40.612Z,99816.92
2018-04-25T07:54:08.136Z,99816.00
2018-04-25T07:56:35.625Z,99813.41
2018-04-25T07:59:03.196Z,99819.70
2018-04-25T08:01:30.689Z,99813.81
2018-04-25T08:03:58.135Z,99821.25
2018-04-25T08:06:25.604Z,99808.96
2018-04-25T08:08:53.105Z,99811.39
2018-04-25T08:11:20.572Z,99808.62
2018-04-25T08:13:59.792Z,99805.12
2018-04-25T08:16:39.057Z,99801.73
2018-04-25T08:19:18.382Z,99805.27
2018-04-25T08:21:45.889Z,99801.73
2018-04-25T08:24:13.406Z,99802.29
2018-04-25T08:26:40.932Z,99796.81
2018-04-25T08:29:08.444Z,99809.38
2018-04-25T08:31:35.920Z,99803.19
2018-04-25T08:34:03.412Z,99806.14
2018-04-25T08:36:30.939Z,99807.11
2018-04-25T08:38:58.416Z,99812.59
2018-04-25T08:41:25.980Z,99807.01
2018-04-25T08:43:53.568Z,99805.57
2018-04-25T08:46:21.023Z,99802.87
2018-04-25T08:48:48.530Z,99804.97
2018-04-25T08:51:16.045Z,99807.66
2018-04-25T08:53:43.552Z,99802.52
2018-04-25T08:56:11.041Z,99806.27
2018-04-25T08:58:38.541Z,99796.86
2018-04-25T09:01:06.030Z,99796.72
2018-04-25T09:03:33.578Z,99800.94
2018-04-25T09:06:01.075Z,99799.48
2018-04-25T09:08:28.536Z,99794.78
2018-04-25T09:10:56.021Z,99789.94
2018-04-25T09:13:23.481Z,99785.55
2018-04-25T09:15:50.969Z,99787.17
2018-04-25T09:18:18.477Z,99777.06
2018-04-25T09:20:45.953Z,99773.88
2018-04-25T09:23:14.145Z,99776.38
2018-04-25T09:25:41.776Z,99774.14
2018-04-25T09:28:09.249Z,99785.33
2018-04-25T09:30:36.696Z,99778.60
2018-04-25T09:33:04.180Z,99773.19
2018-04-25T09:35:31.655Z,99768.84
2018-04-25T09:37:59.167Z,99769.27
2018-04-25T09:40:26.649Z,99769.17
2018-04-25T09:42:54.145Z,99766.45
2018-04-25T09:45:21.619Z,99754.56
2018-04-25T09:47:49.081Z,99745.89
2018-04-25T09:50:16.648Z,99742.33
2018-04-25T09:52:44.214Z,99738.39
2018-04-25T09:55:11.699Z,99734.66
2018-04-25T09:57:39.217Z,99730.66
2018-04-25T10:00:06.686Z,99720.63
2018-04-25T10:02:34.172Z,99734.13
2018-04-25T10:05:01.688Z,99726.71
2018-04-25T10:07:29.244Z,99737.52
2018-04-25T10:09:56.738Z,99731.72
2018-04-25T10:12:24.235Z,99731.79
2018-04-25T10:14:51.710Z,99736.86
2018-04-25T10:17:19.305Z,99734.58
2018-04-25T10:19:46.833Z,99732.88
2018-04-25T10:22:14.292Z,99728.37
2018-04-25T10:24:41.808Z,99730.14
2018-04-25T10:27:09.285Z,99730.55
2018-04-25T10:29:36.764Z,99727.90
2018-04-25T10:32:04.318Z,99731.66
2018-04-25T10:34:31.740Z,99724.03
2018-04-25T10:36:59.258Z,99719.68
2018-04-25T10:39:26.799Z,99721.86
2018-04-25T10:41:54.256Z,99715.56
2018-04-25T10:44:21.737Z,99714.66
2018-04-25T10:46:49.203Z,99713.17
2018-04-25T10:49:16.677Z,99711.44
2018-04-25T10:51:44.546Z,99708.08
2018-04-25T10:54:12.035Z,99716.06
2018-04-25T10:56:39.532Z,99698.23
2018-04-25T10:59:06.981Z,99698.59
2018-04-25T11:01:34.452Z,99710.27
2018-04-25T11:04:01.935Z,99714.39
2018-04-25T11:06:29.418Z,99732.93
2018-04-25T11:08:56.940Z,99737.42
2018-04-25T11:11:24.425Z,99757.84
2018-04-25T11:13:51.871Z,99752.80
2018-04-25T11:16:19.369Z,99791.01
2018-04-25T11:18:46.859Z,99811.43
2018-04-25T11:21:14.382Z,99825.02
2018-04-25T11:23:41.873Z,99833.25
2018-04-25T11:26:09.343Z,99832.60
2018-04-25T11:28:36.855Z,99820.10
2018-04-25T11:31:04.432Z,99817.51
2018-04-25T11:33:32.024Z,99807.98
2018-04-25T11:35:59.528Z,99808.13
2018-04-25T11:38:27.006Z,99800.21
2018-04-25T11:40:54.443Z,99805.13
2018-04-25T11:43:21.919Z,99798.41
2018-04-25T11:45:49.454Z,99806.55
2018-04-25T11:48:16.947Z,99795.54
2018-04-25T11:50:44.486Z,99800.59
2018-04-25T11:53:11.959Z,99812.98
2018-04-25T11:55:39.494Z,99815.55
2018-04-25T11:58:07.031Z,99821.36
2018-04-25T12:00:34.510Z,99814.64
2018-04-25T12:03:01.987Z,99810.87
2018-04-25T12:05:29.507Z,99814.48
2018-04-25T12:07:57.103Z,99803.00
2018-04-25T12:12:58.440Z,99804.99
2018-04-25T12:15:25.981Z,99801.61
2018-04-25T12:17:53.452Z,99808.14
2018-04-25T12:20:20.987Z,99796.97
2018-04-25T12:22:48.512Z,99811.50
2018-04-25T12:25:16.005Z,99812.13
2018-04-25T12:27:43.502Z,99822.38
2018-04-25T12:30:11.001Z,99817.05
2018-04-25T12:32:38.492Z,99819.72
2018-04-25T12:35:05.947Z,99819.77
2018-04-25T12:37:33.448Z,99822.33
2018-04-25T12:40:00.956Z,99829.66
2018-04-25T12:42:28.407Z,99813.38
2018-04-25T12:44:55.875Z,99822.01
2018-04-25T12:47:23.324Z,99832.90
2018-04-25T12:49:50.828Z,99827.56
2018-04-25T12:52:18.331Z,99818.19
2018-04-25T12:54:45.821Z,99825.14
2018-04-25T12:57:14.449Z,99827.41
2018-04-25T12:59:41.948Z,99830.31
2018-04-25T13:02:09.461Z,99834.63
2018-04-25T13:04:36.919Z,99844.89
2018-04-25T13:07:04.396Z,99838.58
2018-04-25T13:09:31.912Z,99835.37
2018-04-25T13:11:59.443Z,99832.61
2018-04-25T13:14:26.894Z,99829.58
2018-04-25T13:16:54.381Z,99844.16
2018-04-25T13:19:21.832Z,99819.55
2018-04-25T13:21:49.370Z,99833.45
2018-04-25T13:24:16.822Z,99849.82
2018-04-25T13:26:44.299Z,99854.66
2018-04-25T13:29:11.835Z,99854.19
2018-04-25T13:31:39.336Z,99850.44
2018-04-25T13:34:06.786Z,99867.63
2018-04-25T13:36:34.287Z,99865.55
2018-04-25T13:39:01.771Z,99861.03
2018-04-25T13:41:29.254Z,99870.01
2018-04-25T13:43:56.816Z,99886.13
2018-04-25T13:46:24.329Z,99879.09
2018-04-25T13:48:51.840Z,99879.77
2018-04-25T13:51:19.423Z,99889.97
2018-04-25T13:53:46.897Z,99906.73
2018-04-25T13:56:14.404Z,99912.67
2018-04-25T13:58:41.888Z,99916.63
2018-04-25T14:01:09.459Z,99935.85
2018-04-25T14:03:36.954Z,99936.98
2018-04-25T14:06:04.420Z,99945.58
2018-04-25T14:08:31.948Z,99940.45
2018-04-25T14:10:59.446Z,99937.26
2018-04-25T14:13:26.952Z,99960.46
2018-04-25T14:15:54.467Z,99967.00
2018-04-25T14:18:22.020Z,99972.59
2018-04-25T14:20:49.941Z,99973.30
2018-04-25T14:23:17.465Z,100006.11
2018-04-25T14:25:45.047Z,100009.55
2018-04-25T14:28:12.579Z,100017.88
2018-04-25T14:30:40.089Z,100030.49
2018-04-25T14:33:07.586Z,100031.33
2018-04-25T14:35:35.031Z,100036.33
2018-04-25T14:38:02.499Z,100057.72
2018-04-25T14:40:29.968Z,100062.67
2018-04-25T14:42:57.478Z,100069.78
2018-04-25T14:45:24.947Z,100085.61
2018-04-25T14:47:52.473Z,100071.37
2018-04-25T14:50:19.983Z,100078.92
2018-04-25T14:52:47.510Z,100088.02
2018-04-25T14:55:14.980Z,100089.98
2018-04-25T14:57:42.529Z,100081.78
2018-04-25T15:00:10.087Z,100085.70
2018-04-25T15:02:37.620Z,100093.16
2018-04-25T15:05:05.147Z,100093.73
2018-04-25T15:07:32.630Z,100110.72
2018-04-25T15:10:00.192Z,100104.71
2018-04-25T15:12:27.783Z,100107.39
2018-04-25T15:14:55.274Z,100104.81
2018-04-25T15:17:22.792Z,100116.45
2018-04-25T15:19:50.326Z,100117.81
2018-04-25T15:22:17.760Z,100117.63
2018-04-25T15:24:45.276Z,100122.02
2018-04-25T15:27:12.726Z,100110.89
2018-04-25T15:29:40.185Z,100130.23
2018-04-25T15:32:07.645Z,100135.00
2018-04-25T15:34:35.192Z,100116.95
2018-04-25T15:37:02.634Z,100139.23
2018-04-25T15:39:30.138Z,100139.67
2018-04-25T15:41:57.773Z,100135.41
2018-04-25T15:44:25.265Z,100137.80
2018-04-25T15:46:52.734Z,100104.03
2018-04-25T15:49:20.250Z,100146.28
2018-04-25T15:51:47.740Z,100141.39
2018-04-25T15:54:15.191Z,100147.95
2018-04-25T15:56:42.714Z,100143.05
2018-04-25T15:59:10.202Z,100136.47
2018-04-25T16:01:37.767Z,100154.23
2018-04-25T16:04:05.306Z,100141.32
2018-04-25T16:06:32.793Z,100141.13
2018-04-25T16:09:00.251Z,100154.64
2018-04-25T16:11:27.737Z,100158.13
2018-04-25T16:13:55.340Z,100162.09
2018-04-25T16:16:23.056Z,100156.11
2018-04-25T16:18:50.557Z,100155.82
2018-04-25T16:21:18.120Z,100145.97
2018-04-25T16:23:45.543Z,100151.28
2018-04-25T16:26:13.153Z,100167.35
2018-04-25T16:28:40.681Z,100163.66
2018-04-25T16:31:08.212Z,100169.75
2018-04-25T16:33:35.646Z,100166.46
2018-04-25T16:36:03.192Z,100174.92
2018-04-25T16:38:30.655Z,100165.98
2018-04-25T16:40:58.176Z,100180.43
2018-04-25T16:43:25.684Z,100185.43
2018-04-25T16:45:53.209Z,100189.13
2018-04-25T16:48:20.649Z,100201.21
2018-04-25T16:50:48.174Z,100196.87
2018-04-25T16:53:15.670Z,100205.98
2018-04-25T16:55:43.188Z,100197.84
2018-04-25T16:58:10.716Z,100201.52
2018-04-25T17:00:38.205Z,100193.34
2018-04-25T17:03:05.691Z,100189.14
2018-04-25T17:05:33.284Z,100177.83
2018-04-25T17:08:00.754Z,100179.53
2018-04-25T17:10:28.201Z,100178.27
2018-04-25T17:12:55.658Z,100182.64
2018-04-25T17:15:23.188Z,100175.58
2018-04-25T17:17:50.713Z,100178.55
2018-04-25T17:20:18.233Z,100178.12
2018-04-25T17:22:45.722Z,100171.95
2018-04-25T17:25:13.250Z,100178.09
2018-04-25T17:27:40.748Z,100185.06
2018-04-25T17:30:08.239Z,100188.80
2018-04-25T17:32:35.719Z,100185.36
2018-04-25T17:35:03.252Z,100201.73
2018-04-25T17:37:30.746Z,100207.41
2018-04-25T17:39:58.238Z,100207.00
2018-04-25T17:42:25.791Z,100205.94
2018-04-25T17:44:53.619Z,100210.25
2018-04-25T17:47:21.990Z,100195.76
2018-04-25T17:49:49.472Z,100217.18
2018-04-25T17:52:16.963Z,100213.21
2018-04-25T17:54:44.439Z,100209.77
2018-04-25T17:57:11.969Z,100215.70
2018-04-25T17:59:39.520Z,100239.28
2018-04-25T18:02:07.003Z,100250.62
2018-04-25T18:04:34.508Z,100259.59
2018-04-25T18:07:02.045Z,100264.34
2018-04-25T18:09:29.928Z,100263.85
2018-04-25T18:11:57.495Z,100259.58
2018-04-25T18:14:24.984Z,100258.36
2018-04-25T18:16:52.480Z,100249.59
2018-04-25T18:19:19.907Z,100250.87
2018-04-25T18:21:47.368Z,100243.12
2018-04-25T18:24:14.819Z,100255.86
2018-04-25T18:26:43.077Z,100259.34
2018-04-25T18:29:10.844Z,100263.82
2018-04-25T18:31:38.884Z,100265.96
2018-04-25T18:34:06.424Z,100267.19
2018-04-25T18:36:33.915Z,100284.52
2018-04-25T18:39:01.436Z,100291.88
2018-04-25T18:41:28.904Z,100305.33
2018-04-25T18:43:56.442Z,100298.47
2018-04-25T18:46:23.941Z,100296.47
2018-04-25T18:48:51.501Z,100302.11
2018-04-25T18:51:19.014Z,100304.45
2018-04-25T18:53:46.510Z,100310.73
2018-04-25T18:56:14.055Z,100324.93
2018-04-25T18:58:41.527Z,100326.97
2018-04-25T19:01:09.036Z,100333.22
2018-04-25T19:03:36.523Z,100335.09
2018-04-25T19:06:04.410Z,100328.77
2018-04-25T19:08:32.279Z,100328.92
2018-04-25T19:10:59.800Z,100329.94
2018-04-25T19:13:27.389Z,100334.55
2018-04-25T19:15:54.888Z,100327.51
2018-04-25T19:18:22.360Z,100335.68
2018-04-25T19:20:49.872Z,100347.94
2018-04-25T19:23:17.390Z,100360.00
2018-04-25T19:25:45.189Z,100357.42
2018-04-25T19:28:12.745Z,100349.95
2018-04-25T19:30:40.289Z,100344.19
2018-04-25T19:33:07.785Z,100343.27
2018-04-25T19:35:35.738Z,100356.22
2018-04-25T19:52:55.379Z,100372.96
2018-04-25T19:55:22.856Z,100376.42
2018-04-25T19:57:50.311Z,100376.66
2018-04-25T20:00:17.799Z,100375.09
2018-04-25T20:02:45.289Z,100368.89
2018-04-25T20:05:12.736Z,100364.50
2018-04-25T20:07:40.236Z,100366.23
2018-04-25T20:10:07.716Z,100362.61
2018-04-25T20:12:35.276Z,100361.33
2018-04-25T20:15:03.169Z,100376.13
2018-04-25T20:17:30.670Z,100380.42
2018-04-25T20:19:58.166Z,100378.78
2018-04-25T20:22:25.951Z,100378.15
2018-04-25T20:24:53.443Z,100380.05
2018-04-25T20:27:20.893Z,100381.44
2018-04-25T20:29:48.441Z,100395.25
2018-04-25T20:32:15.880Z,100397.19
2018-04-25T20:34:43.355Z,100402.02
2018-04-25T20:37:10.868Z,100393.71
2018-04-25T20:39:38.324Z,100388.95
2018-04-25T20:42:05.851Z,100383.71
2018-04-25T20:44:33.330Z,100377.19
2018-04-25T20:47:00.871Z,100372.60
2018-04-25T20:49:28.356Z,100364.88
2018-04-25T20:51:55.920Z,100376.25
2018-04-25T20:54:23.713Z,100389.50
2018-04-25T20:56:51.275Z,100387.72
2018-04-25T20:59:18.754Z,100389.72
2018-04-25T21:01:46.257Z,100394.62
2018-04-25T21:04:13.737Z,100402.37
2018-04-25T21:06:41.228Z,100409.06
2018-04-25T21:09:08.722Z,100409.06
2018-04-25T21:11:36.168Z,100405.66
2018-04-25T21:14:03.680Z,100410.90
2018-04-25T21:16:31.161Z,100410.08
2018-04-25T21:18:58.624Z,100417.27
2018-04-25T21:21:26.142Z,100409.76
2018-04-25T21:23:53.613Z,100417.78
2018-04-25T21:26:21.074Z,100413.33
2018-04-25T21:28:48.568Z,100411.67
2018-04-25T21:31:16.024Z,100407.61
2018-04-25T21:33:43.537Z,100401.64
2018-04-25T21:36:11.008Z,100390.70
2018-04-25T21:38:38.528Z,100385.58
2018-04-25T21:41:05.981Z,100375.94
2018-04-25T21:43:33.452Z,100394.84
2018-04-25T21:46:01.027Z,100394.81
2018-04-25T21:48:28.483Z,100399.42
2018-04-25T21:50:55.959Z,100395.77
2018-04-25T21:53:23.442Z,100395.17
2018-04-25T21:55:50.926Z,100403.84
2018-04-25T21:58:18.437Z,100404.29
2018-04-25T22:00:45.888Z,100398.66
2018-04-25T22:03:13.367Z,100390.28
2018-04-25T22:05:40.986Z,100389.41
2018-04-25T22:08:08.504Z,100391.47
2018-04-25T22:10:36.085Z,100397.11
2018-04-25T22:13:03.535Z,100395.41
2018-04-25T22:15:30.995Z,100389.11
2018-04-25T22:17:58.490Z,100391.86
2018-04-25T22:20:25.936Z,100380.84
2018-04-25T22:22:53.431Z,100383.48
2018-04-25T22:25:21.040Z,100388.78
2018-04-25T22:27:48.523Z,100375.48
2018-04-25T22:30:16.011Z,100375.53
2018-04-25T22:32:43.582Z,100378.07
2018-04-25T22:35:11.027Z,100381.07
2018-04-25T22:37:38.521Z,100382.77
2018-04-25T22:40:06.020Z,100383.09
2018-04-25T22:42:33.476Z,100396.45
2018-04-25T22:45:01.103Z,100397.13
2018-04-25T22:47:28.570Z,100391.68
2018-04-25T22:49:56.011Z,100392.62
2018-04-25T22:52:23.475Z,100397.11
2018-04-25T22:54:51.050Z,100397.63
2018-04-25T22:57:18.523Z,100399.41
2018-04-25T22:59:46.020Z,100403.53
2018-04-25T23:02:13.483Z,100412.92
2018-04-25T23:04:40.962Z,100418.27
2018-04-25T23:07:08.424Z,100414.80
2018-04-25T23:09:35.936Z,100410.20
2018-04-25T23:12:03.437Z,100405.50
2018-04-25T23:14:30.916Z,100402.82
2018-04-25T23:16:58.365Z,100403.44
2018-04-25T23:19:25.856Z,100404.74
2018-04-25T23:21:53.301Z,100416.61
2018-04-25T23:24:20.790Z,100415.04
2018-04-25T23:26:48.266Z,100413.67
2018-04-25T23:29:15.742Z,100408.23
2018-04-25T23:31:43.232Z,100400.84
2018-04-25T23:34:10.840Z,100401.16
2018-04-25T23:36:38.408Z,100404.26
2018-04-25T23:39:05.908Z,100410.08
2018-04-25T23:41:33.379Z,100412.16
2018-04-25T23:44:00.819Z,100419.17
2018-04-25T23:46:28.287Z,100423.30
2018-04-25T23:48:55.770Z,100418.77
2018-04-25T23:51:23.248Z,100421.69
2018-04-25T23:53:50.747Z,100419.42
2018-04-25T23:56:18.196Z,100416.69
2018-04-25T23:58:45.648Z,100411.41
